GB-0033 weather

Heywood Farm Airstrip
Taunton, England, United Kingdom

Public forecast

Using degrees Celsius for public forecast. Weather courtesy of forecast.io.

METAR (pilot weather report)

Closest report is Exeter International Airport, 17.4 nm (32.3 km) SSW. Retrieved 2019/09/23 04:20 UTC (0 seconds ago):

EGTE 230420Z VRB01KT CAVOK 11/11 Q1009

TAF (pilot weather forecast)

Forecast is more than 12 hours old.

Closest forecast is Exeter International Airport, 17.4 nm (32.3 km) SSW. Retrieved 2012/04/19 12:15 UTC (7 years ago):

TAF TAF EGTE 191401Z 1912/1924 31016KT 9999 SCT030 SCT035 PROB40 TEMPO 1915/1918 7000 SHRA BKN014